sensor_id;sensor_type;location;lat;lon;timestamp;P1;durP1;ratioP1;P2;durP2;ratioP2
2175;SDS011;1094;49.902;10.876;2023-12-07T00:01:02;35.33;;;31.50;;
2175;SDS011;1094;49.902;10.876;2023-12-07T00:03:28;32.07;;;29.00;;
2175;SDS011;1094;49.902;10.876;2023-12-07T00:05:54;33.53;;;30.53;;
2175;SDS011;1094;49.902;10.876;2023-12-07T00:08:20;35.10;;;31.40;;
2175;SDS011;1094;49.902;10.876;2023-12-07T00:10:45;32.97;;;29.77;;
2175;SDS011;1094;49.902;10.876;2023-12-07T00:13:11;33.10;;;30.10;;
2175;SDS011;1094;49.902;10.876;2023-12-07T00:15:37;33.30;;;30.30;;
2175;SDS011;1094;49.902;10.876;2023-12-07T00:18:03;33.20;;;29.83;;
2175;SDS011;1094;49.902;10.876;2023-12-07T00:20:29;32.57;;;29.47;;
2175;SDS011;1094;49.902;10.876;2023-12-07T00:22:55;31.60;;;28.93;;
2175;SDS011;1094;49.902;10.876;2023-12-07T00:25:21;32.73;;;29.83;;
2175;SDS011;1094;49.902;10.876;2023-12-07T00:27:49;34.77;;;31.67;;
2175;SDS011;1094;49.902;10.876;2023-12-07T00:30:15;33.30;;;30.00;;
2175;SDS011;1094;49.902;10.876;2023-12-07T00:32:41;33.50;;;30.00;;
2175;SDS011;1094;49.902;10.876;2023-12-07T00:35:08;32.83;;;29.50;;
2175;SDS011;1094;49.902;10.876;2023-12-07T00:37:35;33.30;;;30.00;;
2175;SDS011;1094;49.902;10.876;2023-12-07T00:40:01;34.07;;;30.97;;
2175;SDS011;1094;49.902;10.876;2023-12-07T00:42:27;32.73;;;29.57;;
2175;SDS011;1094;49.902;10.876;2023-12-07T00:44:53;32.77;;;29.73;;
2175;SDS011;1094;49.902;10.876;2023-12-07T00:47:20;33.27;;;29.40;;
2175;SDS011;1094;49.902;10.876;2023-12-07T00:49:46;31.93;;;28.93;;
2175;SDS011;1094;49.902;10.876;2023-12-07T00:52:12;33.10;;;29.60;;
2175;SDS011;1094;49.902;10.876;2023-12-07T00:54:38;32.20;;;29.00;;
2175;SDS011;1094;49.902;10.876;2023-12-07T00:57:04;32.37;;;29.37;;
2175;SDS011;1094;49.902;10.876;2023-12-07T00:59:30;33.77;;;30.67;;
2175;SDS011;1094;49.902;10.876;2023-12-07T01:01:59;31.93;;;29.03;;
2175;SDS011;1094;49.902;10.876;2023-12-07T01:04:25;32.40;;;29.30;;
2175;SDS011;1094;49.902;10.876;2023-12-07T01:06:51;32.93;;;29.50;;
2175;SDS011;1094;49.902;10.876;2023-12-07T01:09:17;31.30;;;28.53;;
2175;SDS011;1094;49.902;10.876;2023-12-07T01:11:43;30.67;;;27.90;;
2175;SDS011;1094;49.902;10.876;2023-12-07T01:14:09;33.27;;;29.90;;
2175;SDS011;1094;49.902;10.876;2023-12-07T01:16:36;31.17;;;28.33;;
2175;SDS011;1094;49.902;10.876;2023-12-07T01:19:02;32.20;;;29.17;;
2175;SDS011;1094;49.902;10.876;2023-12-07T01:21:28;33.37;;;30.27;;
2175;SDS011;1094;49.902;10.876;2023-12-07T01:23:54;39.10;;;29.40;;
2175;SDS011;1094;49.902;10.876;2023-12-07T01:26:20;33.23;;;29.90;;
2175;SDS011;1094;49.902;10.876;2023-12-07T01:28:46;32.03;;;28.97;;
2175;SDS011;1094;49.902;10.876;2023-12-07T01:31:12;30.73;;;27.80;;
2175;SDS011;1094;49.902;10.876;2023-12-07T01:33:38;30.90;;;27.90;;
2175;SDS011;1094;49.902;10.876;2023-12-07T01:36:04;31.97;;;28.83;;
2175;SDS011;1094;49.902;10.876;2023-12-07T01:38:29;30.83;;;27.70;;
2175;SDS011;1094;49.902;10.876;2023-12-07T01:40:55;33.27;;;29.63;;
2175;SDS011;1094;49.902;10.876;2023-12-07T01:43:22;32.63;;;29.53;;
2175;SDS011;1094;49.902;10.876;2023-12-07T01:45:48;30.77;;;28.10;;
2175;SDS011;1094;49.902;10.876;2023-12-07T01:48:15;33.03;;;29.87;;
2175;SDS011;1094;49.902;10.876;2023-12-07T01:50:41;31.20;;;28.10;;
2175;SDS011;1094;49.902;10.876;2023-12-07T01:53:07;30.27;;;27.33;;
2175;SDS011;1094;49.902;10.876;2023-12-07T01:55:34;29.60;;;27.10;;
2175;SDS011;1094;49.902;10.876;2023-12-07T01:58:00;32.07;;;29.33;;
2175;SDS011;1094;49.902;10.876;2023-12-07T02:00:26;32.77;;;29.60;;
2175;SDS011;1094;49.902;10.876;2023-12-07T02:02:52;30.80;;;27.97;;
2175;SDS011;1094;49.902;10.876;2023-12-07T02:05:18;30.73;;;27.83;;
2175;SDS011;1094;49.902;10.876;2023-12-07T02:07:44;30.63;;;28.00;;
2175;SDS011;1094;49.902;10.876;2023-12-07T02:10:11;32.47;;;29.50;;
2175;SDS011;1094;49.902;10.876;2023-12-07T02:12:38;31.87;;;28.17;;
2175;SDS011;1094;49.902;10.876;2023-12-07T02:15:04;32.90;;;29.43;;
2175;SDS011;1094;49.902;10.876;2023-12-07T02:20:05;32.20;;;29.00;;
2175;SDS011;1094;49.902;10.876;2023-12-07T02:22:37;32.57;;;29.40;;
2175;SDS011;1094;49.902;10.876;2023-12-07T02:27:49;30.27;;;27.63;;
2175;SDS011;1094;49.902;10.876;2023-12-07T02:30:15;30.50;;;27.57;;
2175;SDS011;1094;49.902;10.876;2023-12-07T02:32:42;31.03;;;27.93;;
2175;SDS011;1094;49.902;10.876;2023-12-07T02:35:09;30.90;;;28.27;;
2175;SDS011;1094;49.902;10.876;2023-12-07T02:37:41;32.00;;;29.10;;
2175;SDS011;1094;49.902;10.876;2023-12-07T02:40:08;33.13;;;29.90;;
2175;SDS011;1094;49.902;10.876;2023-12-07T02:42:35;31.20;;;28.47;;
2175;SDS011;1094;49.902;10.876;2023-12-07T02:45:03;32.70;;;29.37;;
2175;SDS011;1094;49.902;10.876;2023-12-07T02:47:29;32.03;;;29.13;;
2175;SDS011;1094;49.902;10.876;2023-12-07T02:49:55;31.27;;;28.13;;
2175;SDS011;1094;49.902;10.876;2023-12-07T02:52:21;31.03;;;28.37;;
2175;SDS011;1094;49.902;10.876;2023-12-07T02:54:47;30.47;;;27.57;;
2175;SDS011;1094;49.902;10.876;2023-12-07T02:57:13;31.20;;;28.40;;
2175;SDS011;1094;49.902;10.876;2023-12-07T02:59:40;32.90;;;29.93;;
2175;SDS011;1094;49.902;10.876;2023-12-07T03:02:06;30.80;;;28.20;;
2175;SDS011;1094;49.902;10.876;2023-12-07T03:04:32;32.37;;;29.17;;
2175;SDS011;1094;49.902;10.876;2023-12-07T03:06:58;34.60;;;31.10;;
2175;SDS011;1094;49.902;10.876;2023-12-07T03:09:24;33.03;;;29.70;;
2175;SDS011;1094;49.902;10.876;2023-12-07T03:11:50;33.27;;;29.73;;
2175;SDS011;1094;49.902;10.876;2023-12-07T03:14:16;30.43;;;27.60;;
2175;SDS011;1094;49.902;10.876;2023-12-07T03:16:44;32.35;;;29.50;;
2175;SDS011;1094;49.902;10.876;2023-12-07T03:19:10;31.60;;;28.67;;
2175;SDS011;1094;49.902;10.876;2023-12-07T03:21:39;34.50;;;31.30;;
2175;SDS011;1094;49.902;10.876;2023-12-07T03:24:06;32.63;;;29.77;;
2175;SDS011;1094;49.902;10.876;2023-12-07T03:26:33;32.90;;;30.00;;
2175;SDS011;1094;49.902;10.876;2023-12-07T03:28:59;35.83;;;30.17;;
2175;SDS011;1094;49.902;10.876;2023-12-07T03:31:25;32.90;;;29.95;;
2175;SDS011;1094;49.902;10.876;2023-12-07T03:33:52;32.53;;;29.40;;
2175;SDS011;1094;49.902;10.876;2023-12-07T03:36:18;39.58;;;31.23;;
2175;SDS011;1094;49.902;10.876;2023-12-07T03:38:44;33.57;;;30.53;;
2175;SDS011;1094;49.902;10.876;2023-12-07T03:41:10;34.07;;;30.77;;
2175;SDS011;1094;49.902;10.876;2023-12-07T03:43:36;33.40;;;30.30;;
2175;SDS011;1094;49.902;10.876;2023-12-07T03:46:05;34.10;;;30.80;;
2175;SDS011;1094;49.902;10.876;2023-12-07T03:48:31;34.40;;;30.90;;
2175;SDS011;1094;49.902;10.876;2023-12-07T03:50:57;34.42;;;31.08;;
2175;SDS011;1094;49.902;10.876;2023-12-07T03:53:23;33.00;;;29.73;;
2175;SDS011;1094;49.902;10.876;2023-12-07T03:55:49;33.63;;;30.60;;
2175;SDS011;1094;49.902;10.876;2023-12-07T03:58:15;33.97;;;30.52;;
2175;SDS011;1094;49.902;10.876;2023-12-07T04:00:42;35.22;;;31.65;;
2175;SDS011;1094;49.902;10.876;2023-12-07T04:03:07;33.83;;;30.47;;
2175;SDS011;1094;49.902;10.876;2023-12-07T04:05:33;33.47;;;30.23;;
2175;SDS011;1094;49.902;10.876;2023-12-07T04:07:59;34.10;;;30.70;;
2175;SDS011;1094;49.902;10.876;2023-12-07T04:10:25;32.87;;;29.83;;
2175;SDS011;1094;49.902;10.876;2023-12-07T04:12:51;35.20;;;31.47;;
2175;SDS011;1094;49.902;10.876;2023-12-07T04:15:18;36.25;;;30.70;;
2175;SDS011;1094;49.902;10.876;2023-12-07T04:17:44;35.35;;;32.03;;
2175;SDS011;1094;49.902;10.876;2023-12-07T04:20:10;36.03;;;32.30;;
2175;SDS011;1094;49.902;10.876;2023-12-07T04:22:36;35.13;;;31.42;;
2175;SDS011;1094;49.902;10.876;2023-12-07T04:25:02;37.03;;;33.73;;
2175;SDS011;1094;49.902;10.876;2023-12-07T04:27:28;35.45;;;32.03;;
2175;SDS011;1094;49.902;10.876;2023-12-07T04:29:54;32.83;;;29.63;;
2175;SDS011;1094;49.902;10.876;2023-12-07T04:32:20;35.33;;;31.27;;
2175;SDS011;1094;49.902;10.876;2023-12-07T04:34:45;33.43;;;30.30;;
2175;SDS011;1094;49.902;10.876;2023-12-07T04:37:11;35.53;;;31.93;;
2175;SDS011;1094;49.902;10.876;2023-12-07T04:39:37;34.07;;;30.87;;
2175;SDS011;1094;49.902;10.876;2023-12-07T04:42:03;35.77;;;32.30;;
2175;SDS011;1094;49.902;10.876;2023-12-07T04:44:29;34.88;;;31.40;;
2175;SDS011;1094;49.902;10.876;2023-12-07T04:46:55;33.77;;;30.37;;
2175;SDS011;1094;49.902;10.876;2023-12-07T04:49:21;33.10;;;30.07;;
2175;SDS011;1094;49.902;10.876;2023-12-07T04:51:47;32.90;;;29.70;;
2175;SDS011;1094;49.902;10.876;2023-12-07T04:54:13;35.08;;;31.67;;
2175;SDS011;1094;49.902;10.876;2023-12-07T04:56:42;33.40;;;29.98;;
2175;SDS011;1094;49.902;10.876;2023-12-07T04:59:09;35.78;;;31.95;;
2175;SDS011;1094;49.902;10.876;2023-12-07T05:01:35;35.10;;;31.60;;
2175;SDS011;1094;49.902;10.876;2023-12-07T05:04:01;36.38;;;32.58;;
2175;SDS011;1094;49.902;10.876;2023-12-07T05:06:28;37.60;;;31.75;;
2175;SDS011;1094;49.902;10.876;2023-12-07T05:08:54;35.53;;;31.92;;
2175;SDS011;1094;49.902;10.876;2023-12-07T05:11:20;35.13;;;31.57;;
2175;SDS011;1094;49.902;10.876;2023-12-07T05:13:46;34.63;;;31.10;;
2175;SDS011;1094;49.902;10.876;2023-12-07T05:16:13;34.83;;;31.25;;
2175;SDS011;1094;49.902;10.876;2023-12-07T05:18:39;34.75;;;31.35;;
2175;SDS011;1094;49.902;10.876;2023-12-07T05:21:05;36.45;;;32.53;;
2175;SDS011;1094;49.902;10.876;2023-12-07T05:23:31;34.78;;;31.17;;
2175;SDS011;1094;49.902;10.876;2023-12-07T05:25:57;33.93;;;30.47;;
2175;SDS011;1094;49.902;10.876;2023-12-07T05:28:23;33.83;;;30.50;;
2175;SDS011;1094;49.902;10.876;2023-12-07T05:30:50;34.97;;;31.13;;
2175;SDS011;1094;49.902;10.876;2023-12-07T05:33:17;40.17;;;31.63;;
2175;SDS011;1094;49.902;10.876;2023-12-07T05:35:42;42.95;;;33.15;;
2175;SDS011;1094;49.902;10.876;2023-12-07T05:38:08;35.90;;;31.87;;
2175;SDS011;1094;49.902;10.876;2023-12-07T05:40:34;39.40;;;32.70;;
2175;SDS011;1094;49.902;10.876;2023-12-07T05:43:00;33.77;;;30.13;;
2175;SDS011;1094;49.902;10.876;2023-12-07T05:45:26;36.33;;;31.33;;
2175;SDS011;1094;49.902;10.876;2023-12-07T05:47:52;37.53;;;32.03;;
2175;SDS011;1094;49.902;10.876;2023-12-07T05:50:18;34.93;;;30.07;;
2175;SDS011;1094;49.902;10.876;2023-12-07T05:52:45;40.03;;;31.83;;
2175;SDS011;1094;49.902;10.876;2023-12-07T05:55:11;44.03;;;30.40;;
2175;SDS011;1094;49.902;10.876;2023-12-07T05:57:37;38.15;;;31.92;;
2175;SDS011;1094;49.902;10.876;2023-12-07T06:00:03;41.40;;;33.97;;
2175;SDS011;1094;49.902;10.876;2023-12-07T06:02:34;39.95;;;32.30;;
2175;SDS011;1094;49.902;10.876;2023-12-07T06:05:00;42.90;;;33.57;;
2175;SDS011;1094;49.902;10.876;2023-12-07T06:07:25;37.67;;;29.63;;
2175;SDS011;1094;49.902;10.876;2023-12-07T06:09:51;47.03;;;31.90;;
2175;SDS011;1094;49.902;10.876;2023-12-07T06:12:17;40.20;;;31.40;;
2175;SDS011;1094;49.902;10.876;2023-12-07T06:14:43;46.77;;;32.60;;
2175;SDS011;1094;49.902;10.876;2023-12-07T06:17:09;36.23;;;31.93;;
2175;SDS011;1094;49.902;10.876;2023-12-07T06:19:35;42.90;;;31.17;;
2175;SDS011;1094;49.902;10.876;2023-12-07T06:22:01;38.10;;;31.23;;
2175;SDS011;1094;49.902;10.876;2023-12-07T06:24:27;41.90;;;32.27;;
2175;SDS011;1094;49.902;10.876;2023-12-07T06:26:53;48.40;;;34.97;;
2175;SDS011;1094;49.902;10.876;2023-12-07T06:29:20;41.25;;;31.13;;
2175;SDS011;1094;49.902;10.876;2023-12-07T06:31:45;40.40;;;30.87;;
2175;SDS011;1094;49.902;10.876;2023-12-07T06:34:11;50.10;;;31.30;;
2175;SDS011;1094;49.902;10.876;2023-12-07T06:36:37;48.73;;;30.90;;
2175;SDS011;1094;49.902;10.876;2023-12-07T06:39:03;44.30;;;31.57;;
2175;SDS011;1094;49.902;10.876;2023-12-07T06:41:29;42.70;;;32.70;;
2175;SDS011;1094;49.902;10.876;2023-12-07T06:43:55;48.67;;;32.77;;
2175;SDS011;1094;49.902;10.876;2023-12-07T06:46:21;41.90;;;29.20;;
2175;SDS011;1094;49.902;10.876;2023-12-07T06:48:47;38.23;;;29.90;;
2175;SDS011;1094;49.902;10.876;2023-12-07T06:51:13;41.87;;;32.03;;
2175;SDS011;1094;49.902;10.876;2023-12-07T06:53:39;38.90;;;30.27;;
2175;SDS011;1094;49.902;10.876;2023-12-07T06:56:06;39.25;;;31.50;;
2175;SDS011;1094;49.902;10.876;2023-12-07T06:58:32;40.13;;;28.65;;
2175;SDS011;1094;49.902;10.876;2023-12-07T07:00:58;39.40;;;28.37;;
2175;SDS011;1094;49.902;10.876;2023-12-07T07:03:23;36.87;;;28.37;;
2175;SDS011;1094;49.902;10.876;2023-12-07T07:05:50;44.13;;;28.50;;
2175;SDS011;1094;49.902;10.876;2023-12-07T07:08:15;41.92;;;28.77;;
2175;SDS011;1094;49.902;10.876;2023-12-07T07:10:43;39.50;;;28.85;;
2175;SDS011;1094;49.902;10.876;2023-12-07T07:13:11;54.97;;;32.47;;
2175;SDS011;1094;49.902;10.876;2023-12-07T07:15:39;39.35;;;28.98;;
2175;SDS011;1094;49.902;10.876;2023-12-07T07:18:07;47.10;;;29.17;;
2175;SDS011;1094;49.902;10.876;2023-12-07T07:20:33;49.67;;;28.70;;
2175;SDS011;1094;49.902;10.876;2023-12-07T07:22:59;43.28;;;27.20;;
2175;SDS011;1094;49.902;10.876;2023-12-07T07:25:25;38.83;;;29.27;;
2175;SDS011;1094;49.902;10.876;2023-12-07T07:27:51;40.80;;;28.87;;
2175;SDS011;1094;49.902;10.876;2023-12-07T07:30:19;55.08;;;31.35;;
2175;SDS011;1094;49.902;10.876;2023-12-07T07:32:45;48.60;;;32.97;;
2175;SDS011;1094;49.902;10.876;2023-12-07T07:35:11;42.50;;;31.23;;
2175;SDS011;1094;49.902;10.876;2023-12-07T07:37:40;45.07;;;29.63;;
2175;SDS011;1094;49.902;10.876;2023-12-07T07:40:09;39.97;;;30.13;;
2175;SDS011;1094;49.902;10.876;2023-12-07T07:42:37;34.47;;;27.33;;
2175;SDS011;1094;49.902;10.876;2023-12-07T07:45:04;41.28;;;27.38;;
2175;SDS011;1094;49.902;10.876;2023-12-07T07:47:31;40.15;;;27.63;;
2175;SDS011;1094;49.902;10.876;2023-12-07T07:49:57;40.78;;;27.58;;
2175;SDS011;1094;49.902;10.876;2023-12-07T07:52:23;43.70;;;29.25;;
2175;SDS011;1094;49.902;10.876;2023-12-07T07:54:49;42.43;;;30.53;;
2175;SDS011;1094;49.902;10.876;2023-12-07T07:57:15;46.60;;;29.50;;
2175;SDS011;1094;49.902;10.876;2023-12-07T07:59:41;46.47;;;28.37;;
2175;SDS011;1094;49.902;10.876;2023-12-07T08:02:07;36.47;;;27.97;;
2175;SDS011;1094;49.902;10.876;2023-12-07T08:04:33;49.93;;;29.73;;
2175;SDS011;1094;49.902;10.876;2023-12-07T08:06:59;50.90;;;29.50;;
2175;SDS011;1094;49.902;10.876;2023-12-07T08:09:25;42.17;;;30.30;;
2175;SDS011;1094;49.902;10.876;2023-12-07T08:11:51;42.60;;;28.90;;
2175;SDS011;1094;49.902;10.876;2023-12-07T08:14:17;53.67;;;30.60;;
2175;SDS011;1094;49.902;10.876;2023-12-07T08:16:46;42.23;;;30.57;;
2175;SDS011;1094;49.902;10.876;2023-12-07T08:19:12;44.85;;;30.92;;
2175;SDS011;1094;49.902;10.876;2023-12-07T08:21:38;41.03;;;31.52;;
2175;SDS011;1094;49.902;10.876;2023-12-07T08:24:04;42.50;;;31.27;;
2175;SDS011;1094;49.902;10.876;2023-12-07T08:26:33;49.40;;;33.08;;
2175;SDS011;1094;49.902;10.876;2023-12-07T08:28:59;51.78;;;35.25;;
2175;SDS011;1094;49.902;10.876;2023-12-07T08:31:25;45.03;;;34.30;;
2175;SDS011;1094;49.902;10.876;2023-12-07T08:33:51;49.65;;;32.33;;
2175;SDS011;1094;49.902;10.876;2023-12-07T08:36:17;48.23;;;32.60;;
2175;SDS011;1094;49.902;10.876;2023-12-07T08:38:43;50.63;;;31.17;;
2175;SDS011;1094;49.902;10.876;2023-12-07T08:41:09;48.10;;;33.47;;
2175;SDS011;1094;49.902;10.876;2023-12-07T08:43:35;44.30;;;33.07;;
2175;SDS011;1094;49.902;10.876;2023-12-07T08:46:01;45.57;;;33.07;;
2175;SDS011;1094;49.902;10.876;2023-12-07T08:48:28;41.05;;;31.13;;
2175;SDS011;1094;49.902;10.876;2023-12-07T08:50:54;53.00;;;34.27;;
2175;SDS011;1094;49.902;10.876;2023-12-07T08:53:20;45.55;;;34.22;;
2175;SDS011;1094;49.902;10.876;2023-12-07T08:55:46;42.27;;;33.80;;
2175;SDS011;1094;49.902;10.876;2023-12-07T08:58:12;44.67;;;35.93;;
2175;SDS011;1094;49.902;10.876;2023-12-07T09:00:38;51.10;;;36.50;;
2175;SDS011;1094;49.902;10.876;2023-12-07T09:03:04;45.77;;;35.57;;
2175;SDS011;1094;49.902;10.876;2023-12-07T09:05:30;45.23;;;34.63;;
2175;SDS011;1094;49.902;10.876;2023-12-07T09:07:56;53.27;;;34.90;;
2175;SDS011;1094;49.902;10.876;2023-12-07T09:10:22;41.90;;;34.50;;
2175;SDS011;1094;49.902;10.876;2023-12-07T09:12:48;38.23;;;33.40;;
2175;SDS011;1094;49.902;10.876;2023-12-07T09:15:14;41.03;;;33.20;;
2175;SDS011;1094;49.902;10.876;2023-12-07T09:17:40;38.70;;;34.40;;
2175;SDS011;1094;49.902;10.876;2023-12-07T09:20:07;44.47;;;35.27;;
2175;SDS011;1094;49.902;10.876;2023-12-07T09:22:42;44.60;;;35.80;;
2175;SDS011;1094;49.902;10.876;2023-12-07T09:25:09;38.13;;;34.03;;
2175;SDS011;1094;49.902;10.876;2023-12-07T09:27:35;38.07;;;33.80;;
2175;SDS011;1094;49.902;10.876;2023-12-07T09:30:03;40.73;;;34.90;;
2175;SDS011;1094;49.902;10.876;2023-12-07T09:32:29;44.17;;;33.93;;
2175;SDS011;1094;49.902;10.876;2023-12-07T09:34:55;41.37;;;32.53;;
2175;SDS011;1094;49.902;10.876;2023-12-07T09:37:22;38.20;;;34.20;;
2175;SDS011;1094;49.902;10.876;2023-12-07T09:39:48;36.87;;;32.90;;
2175;SDS011;1094;49.902;10.876;2023-12-07T09:42:14;37.47;;;33.60;;
2175;SDS011;1094;49.902;10.876;2023-12-07T09:44:40;36.63;;;32.77;;
2175;SDS011;1094;49.902;10.876;2023-12-07T09:47:06;38.53;;;34.33;;
2175;SDS011;1094;49.902;10.876;2023-12-07T09:49:32;36.63;;;33.00;;
2175;SDS011;1094;49.902;10.876;2023-12-07T09:51:58;38.00;;;34.03;;
2175;SDS011;1094;49.902;10.876;2023-12-07T09:54:24;37.00;;;33.20;;
2175;SDS011;1094;49.902;10.876;2023-12-07T09:56:51;35.90;;;32.30;;
2175;SDS011;1094;49.902;10.876;2023-12-07T09:59:19;38.40;;;34.37;;
2175;SDS011;1094;49.902;10.876;2023-12-07T10:01:45;40.70;;;33.97;;
2175;SDS011;1094;49.902;10.876;2023-12-07T10:04:14;37.87;;;33.80;;
2175;SDS011;1094;49.902;10.876;2023-12-07T10:06:43;38.50;;;34.57;;
2175;SDS011;1094;49.902;10.876;2023-12-07T10:09:13;36.83;;;32.87;;
2175;SDS011;1094;49.902;10.876;2023-12-07T10:11:39;37.60;;;34.10;;
2175;SDS011;1094;49.902;10.876;2023-12-07T10:14:06;35.83;;;32.43;;
2175;SDS011;1094;49.902;10.876;2023-12-07T10:16:35;35.00;;;31.50;;
2175;SDS011;1094;49.902;10.876;2023-12-07T10:19:14;35.67;;;32.23;;
2175;SDS011;1094;49.902;10.876;2023-12-07T10:21:42;32.80;;;30.07;;
2175;SDS011;1094;49.902;10.876;2023-12-07T10:24:09;31.87;;;29.30;;
2175;SDS011;1094;49.902;10.876;2023-12-07T10:26:36;32.50;;;29.40;;
2175;SDS011;1094;49.902;10.876;2023-12-07T10:29:07;32.23;;;29.43;;
2175;SDS011;1094;49.902;10.876;2023-12-07T10:31:33;31.20;;;28.60;;
2175;SDS011;1094;49.902;10.876;2023-12-07T10:33:59;31.03;;;28.23;;
2175;SDS011;1094;49.902;10.876;2023-12-07T10:36:26;31.37;;;28.67;;
2175;SDS011;1094;49.902;10.876;2023-12-07T10:38:52;31.73;;;28.97;;
2175;SDS011;1094;49.902;10.876;2023-12-07T10:41:19;33.87;;;30.67;;
2175;SDS011;1094;49.902;10.876;2023-12-07T10:43:52;32.47;;;29.67;;
2175;SDS011;1094;49.902;10.876;2023-12-07T10:46:19;36.23;;;32.60;;
2175;SDS011;1094;49.902;10.876;2023-12-07T10:48:45;33.33;;;30.30;;
2175;SDS011;1094;49.902;10.876;2023-12-07T10:51:13;32.50;;;29.60;;
2175;SDS011;1094;49.902;10.876;2023-12-07T10:53:44;34.13;;;30.83;;
2175;SDS011;1094;49.902;10.876;2023-12-07T10:56:11;33.10;;;30.03;;
2175;SDS011;1094;49.902;10.876;2023-12-07T10:58:39;30.17;;;27.77;;
2175;SDS011;1094;49.902;10.876;2023-12-07T11:01:06;31.50;;;28.90;;
2175;SDS011;1094;49.902;10.876;2023-12-07T11:03:36;31.50;;;28.70;;
2175;SDS011;1094;49.902;10.876;2023-12-07T11:06:02;32.43;;;29.83;;
2175;SDS011;1094;49.902;10.876;2023-12-07T11:08:33;29.00;;;26.60;;
2175;SDS011;1094;49.902;10.876;2023-12-07T11:11:03;31.50;;;28.83;;
2175;SDS011;1094;49.902;10.876;2023-12-07T11:13:31;35.00;;;31.80;;
2175;SDS011;1094;49.902;10.876;2023-12-07T11:15:57;34.00;;;31.17;;
2175;SDS011;1094;49.902;10.876;2023-12-07T11:18:27;34.43;;;31.30;;
2175;SDS011;1094;49.902;10.876;2023-12-07T11:20:54;35.97;;;32.87;;
2175;SDS011;1094;49.902;10.876;2023-12-07T11:23:20;31.80;;;28.87;;
2175;SDS011;1094;49.902;10.876;2023-12-07T11:25:47;30.17;;;27.30;;
2175;SDS011;1094;49.902;10.876;2023-12-07T11:28:13;35.13;;;31.93;;
2175;SDS011;1094;49.902;10.876;2023-12-07T11:30:41;36.43;;;33.23;;
2175;SDS011;1094;49.902;10.876;2023-12-07T11:33:08;34.50;;;31.50;;
2175;SDS011;1094;49.902;10.876;2023-12-07T11:38:20;35.10;;;31.90;;
2175;SDS011;1094;49.902;10.876;2023-12-07T11:40:45;30.50;;;28.03;;
2175;SDS011;1094;49.902;10.876;2023-12-07T11:43:30;29.40;;;27.20;;
2175;SDS011;1094;49.902;10.876;2023-12-07T11:45:56;31.23;;;28.40;;
2175;SDS011;1094;49.902;10.876;2023-12-07T11:48:23;31.33;;;28.47;;
2175;SDS011;1094;49.902;10.876;2023-12-07T11:50:59;32.80;;;30.00;;
2175;SDS011;1094;49.902;10.876;2023-12-07T11:53:26;31.27;;;28.73;;
2175;SDS011;1094;49.902;10.876;2023-12-07T11:55:55;29.10;;;26.67;;
2175;SDS011;1094;49.902;10.876;2023-12-07T11:58:21;28.93;;;26.53;;
2175;SDS011;1094;49.902;10.876;2023-12-07T12:00:47;30.40;;;27.90;;
2175;SDS011;1094;49.902;10.876;2023-12-07T12:03:16;29.97;;;27.40;;
2175;SDS011;1094;49.902;10.876;2023-12-07T12:05:42;32.37;;;29.70;;
2175;SDS011;1094;49.902;10.876;2023-12-07T12:08:08;31.10;;;28.57;;
2175;SDS011;1094;49.902;10.876;2023-12-07T12:10:35;33.07;;;30.27;;
2175;SDS011;1094;49.902;10.876;2023-12-07T12:13:01;30.43;;;28.03;;
2175;SDS011;1094;49.902;10.876;2023-12-07T12:15:28;32.73;;;29.63;;
2175;SDS011;1094;49.902;10.876;2023-12-07T12:17:55;31.03;;;28.20;;
2175;SDS011;1094;49.902;10.876;2023-12-07T12:20:21;32.90;;;29.90;;
2175;SDS011;1094;49.902;10.876;2023-12-07T12:22:47;30.50;;;27.90;;
2175;SDS011;1094;49.902;10.876;2023-12-07T12:25:14;30.90;;;28.30;;
2175;SDS011;1094;49.902;10.876;2023-12-07T12:27:40;29.40;;;27.00;;
2175;SDS011;1094;49.902;10.876;2023-12-07T12:30:06;29.67;;;27.17;;
2175;SDS011;1094;49.902;10.876;2023-12-07T12:32:45;31.50;;;28.80;;
2175;SDS011;1094;49.902;10.876;2023-12-07T12:35:11;32.10;;;29.27;;
2175;SDS011;1094;49.902;10.876;2023-12-07T12:37:41;31.77;;;28.97;;
2175;SDS011;1094;49.902;10.876;2023-12-07T12:40:08;32.10;;;29.30;;
2175;SDS011;1094;49.902;10.876;2023-12-07T12:42:34;30.80;;;28.27;;
2175;SDS011;1094;49.902;10.876;2023-12-07T12:45:02;30.87;;;28.17;;
2175;SDS011;1094;49.902;10.876;2023-12-07T12:47:28;31.47;;;29.00;;
2175;SDS011;1094;49.902;10.876;2023-12-07T12:49:54;32.07;;;29.37;;
2175;SDS011;1094;49.902;10.876;2023-12-07T12:52:20;32.63;;;29.87;;
2175;SDS011;1094;49.902;10.876;2023-12-07T12:54:46;33.27;;;30.30;;
2175;SDS011;1094;49.902;10.876;2023-12-07T12:57:13;31.00;;;28.17;;
2175;SDS011;1094;49.902;10.876;2023-12-07T12:59:39;29.60;;;27.00;;
2175;SDS011;1094;49.902;10.876;2023-12-07T13:02:06;29.40;;;27.03;;
2175;SDS011;1094;49.902;10.876;2023-12-07T13:04:34;28.40;;;26.20;;
2175;SDS011;1094;49.902;10.876;2023-12-07T13:06:59;31.60;;;28.97;;
2175;SDS011;1094;49.902;10.876;2023-12-07T13:09:25;29.97;;;27.57;;
2175;SDS011;1094;49.902;10.876;2023-12-07T13:11:51;31.20;;;28.40;;
2175;SDS011;1094;49.902;10.876;2023-12-07T13:14:17;29.13;;;26.83;;
2175;SDS011;1094;49.902;10.876;2023-12-07T13:16:43;28.87;;;26.57;;
2175;SDS011;1094;49.902;10.876;2023-12-07T13:19:09;30.07;;;27.57;;
2175;SDS011;1094;49.902;10.876;2023-12-07T13:21:35;30.70;;;27.83;;
2175;SDS011;1094;49.902;10.876;2023-12-07T13:24:01;31.13;;;28.67;;
2175;SDS011;1094;49.902;10.876;2023-12-07T13:26:29;32.60;;;29.90;;
2175;SDS011;1094;49.902;10.876;2023-12-07T13:28:56;32.63;;;29.67;;
2175;SDS011;1094;49.902;10.876;2023-12-07T13:31:22;31.50;;;28.80;;
2175;SDS011;1094;49.902;10.876;2023-12-07T13:33:48;32.30;;;29.47;;
2175;SDS011;1094;49.902;10.876;2023-12-07T13:36:14;32.43;;;29.20;;
2175;SDS011;1094;49.902;10.876;2023-12-07T13:38:42;32.27;;;29.37;;
2175;SDS011;1094;49.902;10.876;2023-12-07T13:41:08;34.83;;;31.50;;
2175;SDS011;1094;49.902;10.876;2023-12-07T13:43:34;32.77;;;29.90;;
2175;SDS011;1094;49.902;10.876;2023-12-07T13:46:00;32.40;;;29.70;;
2175;SDS011;1094;49.902;10.876;2023-12-07T13:48:26;31.43;;;28.67;;
2175;SDS011;1094;49.902;10.876;2023-12-07T13:50:52;32.73;;;29.77;;
2175;SDS011;1094;49.902;10.876;2023-12-07T13:53:18;34.13;;;31.23;;
2175;SDS011;1094;49.902;10.876;2023-12-07T13:55:44;31.93;;;29.33;;
2175;SDS011;1094;49.902;10.876;2023-12-07T13:58:11;32.03;;;29.40;;
2175;SDS011;1094;49.902;10.876;2023-12-07T14:00:37;32.73;;;30.03;;
2175;SDS011;1094;49.902;10.876;2023-12-07T14:03:03;34.40;;;31.57;;
2175;SDS011;1094;49.902;10.876;2023-12-07T14:05:29;35.77;;;32.47;;
2175;SDS011;1094;49.902;10.876;2023-12-07T14:07:55;33.77;;;30.80;;
2175;SDS011;1094;49.902;10.876;2023-12-07T14:10:21;33.93;;;31.00;;
2175;SDS011;1094;49.902;10.876;2023-12-07T14:12:47;34.13;;;31.10;;
2175;SDS011;1094;49.902;10.876;2023-12-07T14:15:13;33.20;;;30.00;;
2175;SDS011;1094;49.902;10.876;2023-12-07T14:17:39;35.00;;;30.80;;
2175;SDS011;1094;49.902;10.876;2023-12-07T14:20:06;35.67;;;32.23;;
2175;SDS011;1094;49.902;10.876;2023-12-07T14:22:33;34.07;;;31.07;;
2175;SDS011;1094;49.902;10.876;2023-12-07T14:24:59;32.17;;;29.37;;
2175;SDS011;1094;49.902;10.876;2023-12-07T14:27:25;34.57;;;31.73;;
2175;SDS011;1094;49.902;10.876;2023-12-07T14:29:51;34.63;;;31.50;;
2175;SDS011;1094;49.902;10.876;2023-12-07T14:32:17;34.43;;;31.50;;
2175;SDS011;1094;49.902;10.876;2023-12-07T14:34:43;35.17;;;31.87;;
2175;SDS011;1094;49.902;10.876;2023-12-07T14:37:09;37.50;;;33.73;;